sensor_id;sensor_type;location;lat;lon;timestamp;temperature;humidity
12013;DHT22;6065;48.138;16.402;2024-03-06T00:00:48;9.10;99.90
12013;DHT22;6065;48.138;16.402;2024-03-06T00:03:15;9.10;99.90
12013;DHT22;6065;48.138;16.402;2024-03-06T00:05:42;9.20;99.90
12013;DHT22;6065;48.138;16.402;2024-03-06T00:08:09;9.20;99.90
12013;DHT22;6065;48.138;16.402;2024-03-06T00:10:36;9.20;99.90
12013;DHT22;6065;48.138;16.402;2024-03-06T00:13:03;9.20;99.90
12013;DHT22;6065;48.138;16.402;2024-03-06T00:15:31;9.20;99.90
12013;DHT22;6065;48.138;16.402;2024-03-06T00:17:59;9.20;99.90
12013;DHT22;6065;48.138;16.402;2024-03-06T00:20:26;9.10;99.90
12013;DHT22;6065;48.138;16.402;2024-03-06T00:22:53;9.10;99.90
12013;DHT22;6065;48.138;16.402;2024-03-06T00:25:21;9.10;99.90
12013;DHT22;6065;48.138;16.402;2024-03-06T00:27:48;9.10;99.90
12013;DHT22;6065;48.138;16.402;2024-03-06T00:30:14;9.00;99.90
12013;DHT22;6065;48.138;16.402;2024-03-06T00:32:42;9.00;99.90
12013;DHT22;6065;48.138;16.402;2024-03-06T00:35:09;8.90;99.90
12013;DHT22;6065;48.138;16.402;2024-03-06T00:37:37;8.90;99.90
12013;DHT22;6065;48.138;16.402;2024-03-06T00:40:04;8.90;99.90
12013;DHT22;6065;48.138;16.402;2024-03-06T00:42:31;8.80;99.90
12013;DHT22;6065;48.138;16.402;2024-03-06T00:44:58;8.90;99.90
12013;DHT22;6065;48.138;16.402;2024-03-06T00:47:25;8.90;99.90
12013;DHT22;6065;48.138;16.402;2024-03-06T00:49:54;8.80;99.90
12013;DHT22;6065;48.138;16.402;2024-03-06T00:52:20;8.70;99.90
12013;DHT22;6065;48.138;16.402;2024-03-06T00:54:47;8.70;99.90
12013;DHT22;6065;48.138;16.402;2024-03-06T00:57:14;8.70;99.90
12013;DHT22;6065;48.138;16.402;2024-03-06T00:59:40;8.60;99.90
12013;DHT22;6065;48.138;16.402;2024-03-06T01:02:06;8.60;99.90
12013;DHT22;6065;48.138;16.402;2024-03-06T01:04:33;8.60;99.90
12013;DHT22;6065;48.138;16.402;2024-03-06T01:07:01;8.60;99.90
12013;DHT22;6065;48.138;16.402;2024-03-06T01:09:28;8.60;99.90
12013;DHT22;6065;48.138;16.402;2024-03-06T01:11:55;8.70;99.90
12013;DHT22;6065;48.138;16.402;2024-03-06T01:14:22;8.70;99.90
12013;DHT22;6065;48.138;16.402;2024-03-06T01:16:48;8.60;99.90
12013;DHT22;6065;48.138;16.402;2024-03-06T01:19:15;8.60;99.90
12013;DHT22;6065;48.138;16.402;2024-03-06T01:21:42;8.70;99.90
12013;DHT22;6065;48.138;16.402;2024-03-06T01:24:10;8.70;99.90
12013;DHT22;6065;48.138;16.402;2024-03-06T01:26:37;8.70;99.90
12013;DHT22;6065;48.138;16.402;2024-03-06T01:29:03;8.70;99.90
12013;DHT22;6065;48.138;16.402;2024-03-06T01:31:30;8.70;99.90
12013;DHT22;6065;48.138;16.402;2024-03-06T01:33:57;8.70;99.90
12013;DHT22;6065;48.138;16.402;2024-03-06T01:36:24;8.70;99.90
12013;DHT22;6065;48.138;16.402;2024-03-06T01:38:50;8.70;99.90
12013;DHT22;6065;48.138;16.402;2024-03-06T01:41:19;8.70;99.90
12013;DHT22;6065;48.138;16.402;2024-03-06T01:43:45;8.60;99.90
12013;DHT22;6065;48.138;16.402;2024-03-06T01:46:12;8.60;99.90
12013;DHT22;6065;48.138;16.402;2024-03-06T01:48:39;8.60;99.90
12013;DHT22;6065;48.138;16.402;2024-03-06T01:51:08;8.60;99.90
12013;DHT22;6065;48.138;16.402;2024-03-06T01:53:35;8.60;99.90
12013;DHT22;6065;48.138;16.402;2024-03-06T01:56:02;8.60;99.90
12013;DHT22;6065;48.138;16.402;2024-03-06T01:58:32;8.50;99.90
12013;DHT22;6065;48.138;16.402;2024-03-06T02:01:00;8.50;99.90
12013;DHT22;6065;48.138;16.402;2024-03-06T02:03:27;8.50;99.90
12013;DHT22;6065;48.138;16.402;2024-03-06T02:05:54;8.50;99.90
12013;DHT22;6065;48.138;16.402;2024-03-06T02:08:23;8.50;99.90
12013;DHT22;6065;48.138;16.402;2024-03-06T02:10:50;8.60;99.90
12013;DHT22;6065;48.138;16.402;2024-03-06T02:13:17;8.50;99.90
12013;DHT22;6065;48.138;16.402;2024-03-06T02:15:45;8.60;99.90
12013;DHT22;6065;48.138;16.402;2024-03-06T02:18:12;8.60;99.90
12013;DHT22;6065;48.138;16.402;2024-03-06T02:20:40;8.60;99.90
12013;DHT22;6065;48.138;16.402;2024-03-06T02:23:07;8.60;99.90
12013;DHT22;6065;48.138;16.402;2024-03-06T02:25:34;8.60;99.90
12013;DHT22;6065;48.138;16.402;2024-03-06T02:28:01;8.50;99.90
12013;DHT22;6065;48.138;16.402;2024-03-06T02:30:28;8.40;99.90
12013;DHT22;6065;48.138;16.402;2024-03-06T02:32:56;8.30;99.90
12013;DHT22;6065;48.138;16.402;2024-03-06T02:35:22;8.20;99.90
12013;DHT22;6065;48.138;16.402;2024-03-06T02:37:50;8.20;99.90
12013;DHT22;6065;48.138;16.402;2024-03-06T02:40:17;8.10;99.90
12013;DHT22;6065;48.138;16.402;2024-03-06T02:42:44;8.10;99.90
12013;DHT22;6065;48.138;16.402;2024-03-06T02:45:11;8.00;99.90
12013;DHT22;6065;48.138;16.402;2024-03-06T02:47:38;8.00;99.90
12013;DHT22;6065;48.138;16.402;2024-03-06T02:50:06;8.00;99.90
12013;DHT22;6065;48.138;16.402;2024-03-06T02:52:33;8.00;99.90
12013;DHT22;6065;48.138;16.402;2024-03-06T02:55:01;7.90;99.90
12013;DHT22;6065;48.138;16.402;2024-03-06T02:57:28;7.90;99.90
12013;DHT22;6065;48.138;16.402;2024-03-06T02:59:55;8.00;99.90
12013;DHT22;6065;48.138;16.402;2024-03-06T03:02:21;8.00;99.90
12013;DHT22;6065;48.138;16.402;2024-03-06T03:04:49;8.00;99.90
12013;DHT22;6065;48.138;16.402;2024-03-06T03:07:15;8.00;99.90
12013;DHT22;6065;48.138;16.402;2024-03-06T03:09:42;8.00;99.90
12013;DHT22;6065;48.138;16.402;2024-03-06T03:12:10;8.10;99.90
12013;DHT22;6065;48.138;16.402;2024-03-06T03:14:37;8.10;99.90
12013;DHT22;6065;48.138;16.402;2024-03-06T03:17:06;8.10;99.90
12013;DHT22;6065;48.138;16.402;2024-03-06T03:19:32;8.10;99.90
12013;DHT22;6065;48.138;16.402;2024-03-06T03:21:59;8.10;99.90
12013;DHT22;6065;48.138;16.402;2024-03-06T03:24:29;8.10;99.90
12013;DHT22;6065;48.138;16.402;2024-03-06T03:26:56;8.10;99.90
12013;DHT22;6065;48.138;16.402;2024-03-06T03:29:24;8.10;99.90
12013;DHT22;6065;48.138;16.402;2024-03-06T03:31:51;8.10;99.90
12013;DHT22;6065;48.138;16.402;2024-03-06T03:34:18;8.10;99.90
12013;DHT22;6065;48.138;16.402;2024-03-06T03:36:46;8.10;99.90
12013;DHT22;6065;48.138;16.402;2024-03-06T03:39:14;8.10;99.90
12013;DHT22;6065;48.138;16.402;2024-03-06T03:41:44;8.00;99.90
12013;DHT22;6065;48.138;16.402;2024-03-06T03:44:12;8.00;99.90
12013;DHT22;6065;48.138;16.402;2024-03-06T03:46:40;8.00;99.90
12013;DHT22;6065;48.138;16.402;2024-03-06T03:49:07;8.00;99.90
12013;DHT22;6065;48.138;16.402;2024-03-06T03:51:34;8.00;99.90
12013;DHT22;6065;48.138;16.402;2024-03-06T03:54:01;8.00;99.90
12013;DHT22;6065;48.138;16.402;2024-03-06T03:56:28;7.90;99.90
12013;DHT22;6065;48.138;16.402;2024-03-06T03:58:55;7.90;99.90
12013;DHT22;6065;48.138;16.402;2024-03-06T04:01:22;7.80;99.90
12013;DHT22;6065;48.138;16.402;2024-03-06T04:03:51;7.80;99.90
12013;DHT22;6065;48.138;16.402;2024-03-06T04:06:18;7.80;99.90
12013;DHT22;6065;48.138;16.402;2024-03-06T04:08:45;7.80;99.90
12013;DHT22;6065;48.138;16.402;2024-03-06T04:11:12;7.80;99.90
12013;DHT22;6065;48.138;16.402;2024-03-06T04:13:38;7.70;99.90
12013;DHT22;6065;48.138;16.402;2024-03-06T04:16:05;7.80;99.90
12013;DHT22;6065;48.138;16.402;2024-03-06T04:18:32;7.80;99.90
12013;DHT22;6065;48.138;16.402;2024-03-06T04:21:03;7.80;99.90
12013;DHT22;6065;48.138;16.402;2024-03-06T04:23:30;7.70;99.90
12013;DHT22;6065;48.138;16.402;2024-03-06T04:25:58;7.70;99.90
12013;DHT22;6065;48.138;16.402;2024-03-06T04:28:24;7.70;99.90
12013;DHT22;6065;48.138;16.402;2024-03-06T04:30:51;7.70;99.90
12013;DHT22;6065;48.138;16.402;2024-03-06T04:33:18;7.70;99.90
12013;DHT22;6065;48.138;16.402;2024-03-06T04:35:45;7.60;99.90
12013;DHT22;6065;48.138;16.402;2024-03-06T04:38:14;7.70;99.90
12013;DHT22;6065;48.138;16.402;2024-03-06T04:40:40;7.70;99.90
12013;DHT22;6065;48.138;16.402;2024-03-06T04:43:07;7.60;99.90
12013;DHT22;6065;48.138;16.402;2024-03-06T04:45:34;7.60;99.90
12013;DHT22;6065;48.138;16.402;2024-03-06T04:48:01;7.60;99.90
12013;DHT22;6065;48.138;16.402;2024-03-06T04:50:28;7.50;99.90
12013;DHT22;6065;48.138;16.402;2024-03-06T04:52:55;7.50;99.90
12013;DHT22;6065;48.138;16.402;2024-03-06T04:55:23;7.60;99.90
12013;DHT22;6065;48.138;16.402;2024-03-06T04:57:51;7.50;99.90
12013;DHT22;6065;48.138;16.402;2024-03-06T05:00:18;7.50;99.90
12013;DHT22;6065;48.138;16.402;2024-03-06T05:02:45;7.50;99.90
12013;DHT22;6065;48.138;16.402;2024-03-06T05:05:11;7.50;99.90
12013;DHT22;6065;48.138;16.402;2024-03-06T05:07:37;7.50;99.90
12013;DHT22;6065;48.138;16.402;2024-03-06T05:10:04;7.50;99.90
12013;DHT22;6065;48.138;16.402;2024-03-06T05:12:34;7.50;99.90
12013;DHT22;6065;48.138;16.402;2024-03-06T05:15:02;7.50;99.90
12013;DHT22;6065;48.138;16.402;2024-03-06T05:17:29;7.50;99.90
12013;DHT22;6065;48.138;16.402;2024-03-06T05:19:56;7.50;99.90
12013;DHT22;6065;48.138;16.402;2024-03-06T05:22:23;7.40;99.90
12013;DHT22;6065;48.138;16.402;2024-03-06T05:24:50;7.40;99.90
12013;DHT22;6065;48.138;16.402;2024-03-06T05:27:16;7.40;99.90
12013;DHT22;6065;48.138;16.402;2024-03-06T05:29:44;7.40;99.90
12013;DHT22;6065;48.138;16.402;2024-03-06T05:32:11;7.40;99.90
12013;DHT22;6065;48.138;16.402;2024-03-06T05:34:38;7.40;99.90
12013;DHT22;6065;48.138;16.402;2024-03-06T05:37:05;7.40;99.90
12013;DHT22;6065;48.138;16.402;2024-03-06T05:39:32;7.40;99.90
12013;DHT22;6065;48.138;16.402;2024-03-06T05:42:02;7.40;99.90
12013;DHT22;6065;48.138;16.402;2024-03-06T05:44:29;7.40;99.90
12013;DHT22;6065;48.138;16.402;2024-03-06T05:46:58;7.30;99.90
12013;DHT22;6065;48.138;16.402;2024-03-06T05:49:26;7.30;99.90
12013;DHT22;6065;48.138;16.402;2024-03-06T05:51:53;7.40;99.90
12013;DHT22;6065;48.138;16.402;2024-03-06T05:54:20;7.40;99.90
12013;DHT22;6065;48.138;16.402;2024-03-06T05:56:47;7.40;99.90
12013;DHT22;6065;48.138;16.402;2024-03-06T05:59:14;7.40;99.90
12013;DHT22;6065;48.138;16.402;2024-03-06T06:01:41;7.40;99.90
12013;DHT22;6065;48.138;16.402;2024-03-06T06:04:09;7.40;99.90
12013;DHT22;6065;48.138;16.402;2024-03-06T06:06:36;7.40;99.90
12013;DHT22;6065;48.138;16.402;2024-03-06T06:09:03;7.40;99.90
12013;DHT22;6065;48.138;16.402;2024-03-06T06:11:31;7.40;99.90
12013;DHT22;6065;48.138;16.402;2024-03-06T06:13:58;7.40;99.90
12013;DHT22;6065;48.138;16.402;2024-03-06T06:16:25;7.40;99.90
12013;DHT22;6065;48.138;16.402;2024-03-06T06:18:52;7.40;99.90
12013;DHT22;6065;48.138;16.402;2024-03-06T06:21:20;7.40;99.90
12013;DHT22;6065;48.138;16.402;2024-03-06T06:23:47;7.40;99.90
12013;DHT22;6065;48.138;16.402;2024-03-06T06:26:14;7.40;99.90
12013;DHT22;6065;48.138;16.402;2024-03-06T06:28:40;7.40;99.90
12013;DHT22;6065;48.138;16.402;2024-03-06T06:31:07;7.40;99.90
12013;DHT22;6065;48.138;16.402;2024-03-06T06:33:34;7.40;99.90
12013;DHT22;6065;48.138;16.402;2024-03-06T06:36:01;7.50;99.90
12013;DHT22;6065;48.138;16.402;2024-03-06T06:38:29;7.50;99.90
12013;DHT22;6065;48.138;16.402;2024-03-06T06:40:56;7.50;99.90
12013;DHT22;6065;48.138;16.402;2024-03-06T06:43:23;7.50;99.90
12013;DHT22;6065;48.138;16.402;2024-03-06T06:45:49;7.50;99.90
12013;DHT22;6065;48.138;16.402;2024-03-06T06:48:17;7.50;99.90
12013;DHT22;6065;48.138;16.402;2024-03-06T06:50:44;7.50;99.90
12013;DHT22;6065;48.138;16.402;2024-03-06T06:53:13;7.50;99.90
12013;DHT22;6065;48.138;16.402;2024-03-06T06:55:41;7.60;99.90
12013;DHT22;6065;48.138;16.402;2024-03-06T06:58:08;7.60;99.90
12013;DHT22;6065;48.138;16.402;2024-03-06T07:00:35;7.60;99.90
12013;DHT22;6065;48.138;16.402;2024-03-06T07:03:02;7.60;99.90
12013;DHT22;6065;48.138;16.402;2024-03-06T07:05:29;7.70;99.90
12013;DHT22;6065;48.138;16.402;2024-03-06T07:07:56;7.70;99.90
12013;DHT22;6065;48.138;16.402;2024-03-06T07:10:23;7.70;99.90
12013;DHT22;6065;48.138;16.402;2024-03-06T07:12:51;7.70;99.90
12013;DHT22;6065;48.138;16.402;2024-03-06T07:15:18;7.70;99.90
12013;DHT22;6065;48.138;16.402;2024-03-06T07:17:45;7.80;99.90
12013;DHT22;6065;48.138;16.402;2024-03-06T07:20:11;7.80;99.90
12013;DHT22;6065;48.138;16.402;2024-03-06T07:22:39;7.80;99.90
12013;DHT22;6065;48.138;16.402;2024-03-06T07:25:06;7.80;99.90
12013;DHT22;6065;48.138;16.402;2024-03-06T07:27:33;7.90;99.90
12013;DHT22;6065;48.138;16.402;2024-03-06T07:30:01;7.90;99.90
12013;DHT22;6065;48.138;16.402;2024-03-06T07:32:28;8.00;99.90
12013;DHT22;6065;48.138;16.402;2024-03-06T07:34:55;8.00;99.90
12013;DHT22;6065;48.138;16.402;2024-03-06T07:37:23;8.00;99.90
12013;DHT22;6065;48.138;16.402;2024-03-06T07:39:50;8.10;99.90
12013;DHT22;6065;48.138;16.402;2024-03-06T07:42:17;8.10;99.90
12013;DHT22;6065;48.138;16.402;2024-03-06T07:44:44;8.10;99.90
12013;DHT22;6065;48.138;16.402;2024-03-06T07:47:12;8.10;99.90
12013;DHT22;6065;48.138;16.402;2024-03-06T07:49:40;8.10;99.90
12013;DHT22;6065;48.138;16.402;2024-03-06T07:52:06;8.20;99.90
12013;DHT22;6065;48.138;16.402;2024-03-06T07:54:34;8.20;99.90
12013;DHT22;6065;48.138;16.402;2024-03-06T07:57:01;8.20;99.90
12013;DHT22;6065;48.138;16.402;2024-03-06T07:59:28;8.30;99.90
12013;DHT22;6065;48.138;16.402;2024-03-06T08:01:55;8.30;99.90
12013;DHT22;6065;48.138;16.402;2024-03-06T08:04:24;8.30;99.90
12013;DHT22;6065;48.138;16.402;2024-03-06T08:06:52;8.40;99.90
12013;DHT22;6065;48.138;16.402;2024-03-06T08:09:18;8.40;99.90
12013;DHT22;6065;48.138;16.402;2024-03-06T08:11:45;8.40;99.90
12013;DHT22;6065;48.138;16.402;2024-03-06T08:14:12;8.50;99.90
12013;DHT22;6065;48.138;16.402;2024-03-06T08:16:40;8.50;99.90
12013;DHT22;6065;48.138;16.402;2024-03-06T08:19:07;8.60;99.90
12013;DHT22;6065;48.138;16.402;2024-03-06T08:21:36;8.60;99.90
12013;DHT22;6065;48.138;16.402;2024-03-06T08:24:03;8.60;99.90
12013;DHT22;6065;48.138;16.402;2024-03-06T08:26:30;8.70;99.90
12013;DHT22;6065;48.138;16.402;2024-03-06T08:28:57;8.70;99.90
12013;DHT22;6065;48.138;16.402;2024-03-06T08:31:24;8.70;99.90
12013;DHT22;6065;48.138;16.402;2024-03-06T08:33:50;8.80;99.90
12013;DHT22;6065;48.138;16.402;2024-03-06T08:36:18;8.80;99.90
12013;DHT22;6065;48.138;16.402;2024-03-06T08:38:48;8.80;99.90
12013;DHT22;6065;48.138;16.402;2024-03-06T08:41:15;8.90;99.90
12013;DHT22;6065;48.138;16.402;2024-03-06T08:43:41;8.90;99.90
12013;DHT22;6065;48.138;16.402;2024-03-06T08:46:08;8.90;99.90
12013;DHT22;6065;48.138;16.402;2024-03-06T08:48:35;8.90;99.90
12013;DHT22;6065;48.138;16.402;2024-03-06T08:51:03;8.90;99.90
12013;DHT22;6065;48.138;16.402;2024-03-06T08:53:35;9.00;99.90
12013;DHT22;6065;48.138;16.402;2024-03-06T08:56:04;9.00;99.90
12013;DHT22;6065;48.138;16.402;2024-03-06T08:58:31;9.10;99.90
12013;DHT22;6065;48.138;16.402;2024-03-06T09:00:58;9.10;99.90
12013;DHT22;6065;48.138;16.402;2024-03-06T09:03:25;9.10;99.90
12013;DHT22;6065;48.138;16.402;2024-03-06T09:05:52;9.20;99.90
12013;DHT22;6065;48.138;16.402;2024-03-06T09:08:19;9.20;99.90
12013;DHT22;6065;48.138;16.402;2024-03-06T09:10:45;9.20;99.90
12013;DHT22;6065;48.138;16.402;2024-03-06T09:13:13;9.20;99.90
12013;DHT22;6065;48.138;16.402;2024-03-06T09:15:40;9.30;99.90
12013;DHT22;6065;48.138;16.402;2024-03-06T09:18:07;9.30;99.90
12013;DHT22;6065;48.138;16.402;2024-03-06T09:20:34;9.30;99.90
12013;DHT22;6065;48.138;16.402;2024-03-06T09:23:00;9.40;99.90
12013;DHT22;6065;48.138;16.402;2024-03-06T09:25:28;9.40;99.90
12013;DHT22;6065;48.138;16.402;2024-03-06T09:27:55;9.40;99.90
12013;DHT22;6065;48.138;16.402;2024-03-06T09:30:23;9.50;99.90
12013;DHT22;6065;48.138;16.402;2024-03-06T09:32:50;9.50;99.90
12013;DHT22;6065;48.138;16.402;2024-03-06T09:35:17;9.60;99.90
12013;DHT22;6065;48.138;16.402;2024-03-06T09:37:44;9.60;99.90
12013;DHT22;6065;48.138;16.402;2024-03-06T09:40:11;9.70;99.90
12013;DHT22;6065;48.138;16.402;2024-03-06T09:42:45;9.80;99.90
12013;DHT22;6065;48.138;16.402;2024-03-06T09:45:12;9.90;99.90
12013;DHT22;6065;48.138;16.402;2024-03-06T09:47:41;9.90;99.90
12013;DHT22;6065;48.138;16.402;2024-03-06T09:50:09;10.00;99.90
12013;DHT22;6065;48.138;16.402;2024-03-06T09:52:36;10.00;99.90
12013;DHT22;6065;48.138;16.402;2024-03-06T09:55:03;10.10;99.90
12013;DHT22;6065;48.138;16.402;2024-03-06T09:57:30;10.20;99.90
12013;DHT22;6065;48.138;16.402;2024-03-06T09:59:57;10.20;99.90
12013;DHT22;6065;48.138;16.402;2024-03-06T10:02:28;10.30;99.90
12013;DHT22;6065;48.138;16.402;2024-03-06T10:04:58;10.30;99.90
12013;DHT22;6065;48.138;16.402;2024-03-06T10:07:25;10.40;99.90
12013;DHT22;6065;48.138;16.402;2024-03-06T10:09:52;10.50;99.90
12013;DHT22;6065;48.138;16.402;2024-03-06T10:12:19;10.50;99.70
12013;DHT22;6065;48.138;16.402;2024-03-06T10:14:50;10.60;99.70
12013;DHT22;6065;48.138;16.402;2024-03-06T10:17:20;10.60;99.40
12013;DHT22;6065;48.138;16.402;2024-03-06T10:19:48;10.60;99.30
12013;DHT22;6065;48.138;16.402;2024-03-06T10:22:19;10.70;99.20
12013;DHT22;6065;48.138;16.402;2024-03-06T10:24:46;10.70;99.10
12013;DHT22;6065;48.138;16.402;2024-03-06T10:27:14;10.80;99.10
12013;DHT22;6065;48.138;16.402;2024-03-06T10:29:41;10.80;99.00
12013;DHT22;6065;48.138;16.402;2024-03-06T10:32:08;10.90;98.60
12013;DHT22;6065;48.138;16.402;2024-03-06T10:34:36;10.90;98.20
12013;DHT22;6065;48.138;16.402;2024-03-06T10:37:03;10.90;98.00
12013;DHT22;6065;48.138;16.402;2024-03-06T10:39:32;10.90;98.00
12013;DHT22;6065;48.138;16.402;2024-03-06T10:42:02;11.00;97.90
12013;DHT22;6065;48.138;16.402;2024-03-06T10:44:31;11.00;97.80
12013;DHT22;6065;48.138;16.402;2024-03-06T10:46:59;11.00;97.90
12013;DHT22;6065;48.138;16.402;2024-03-06T10:49:27;11.10;97.80
12013;DHT22;6065;48.138;16.402;2024-03-06T10:51:57;11.10;97.50
12013;DHT22;6065;48.138;16.402;2024-03-06T10:54:25;11.20;97.40
12013;DHT22;6065;48.138;16.402;2024-03-06T10:56:54;11.30;97.50
12013;DHT22;6065;48.138;16.402;2024-03-06T10:59:21;11.30;97.20
12013;DHT22;6065;48.138;16.402;2024-03-06T11:01:53;11.40;96.90
12013;DHT22;6065;48.138;16.402;2024-03-06T11:04:20;11.40;97.00
12013;DHT22;6065;48.138;16.402;2024-03-06T11:06:47;11.50;97.00
12013;DHT22;6065;48.138;16.402;2024-03-06T11:09:14;11.60;97.10
12013;DHT22;6065;48.138;16.402;2024-03-06T11:11:47;11.60;97.00
12013;DHT22;6065;48.138;16.402;2024-03-06T11:14:15;11.70;96.90
12013;DHT22;6065;48.138;16.402;2024-03-06T11:17:03;11.70;96.70
12013;DHT22;6065;48.138;16.402;2024-03-06T11:19:31;11.80;96.80
12013;DHT22;6065;48.138;16.402;2024-03-06T11:21:58;11.90;96.70
12013;DHT22;6065;48.138;16.402;2024-03-06T11:24:31;12.00;96.90
12013;DHT22;6065;48.138;16.402;2024-03-06T11:26:59;12.10;96.70
12013;DHT22;6065;48.138;16.402;2024-03-06T11:30:02;12.20;96.50
12013;DHT22;6065;48.138;16.402;2024-03-06T11:32:18;12.20;95.90
12013;DHT22;6065;48.138;16.402;2024-03-06T11:34:44;12.30;95.90
12013;DHT22;6065;48.138;16.402;2024-03-06T11:37:11;12.30;95.50
12013;DHT22;6065;48.138;16.402;2024-03-06T11:39:39;12.30;95.30
12013;DHT22;6065;48.138;16.402;2024-03-06T11:42:06;12.40;95.30
12013;DHT22;6065;48.138;16.402;2024-03-06T11:44:35;12.50;95.20
12013;DHT22;6065;48.138;16.402;2024-03-06T11:47:03;12.50;95.00
12013;DHT22;6065;48.138;16.402;2024-03-06T11:49:30;12.60;95.10
12013;DHT22;6065;48.138;16.402;2024-03-06T11:52:00;12.70;95.20
12013;DHT22;6065;48.138;16.402;2024-03-06T11:54:27;12.70;95.20
12013;DHT22;6065;48.138;16.402;2024-03-06T11:56:55;12.80;94.60
12013;DHT22;6065;48.138;16.402;2024-03-06T11:59:22;12.80;94.50
12013;DHT22;6065;48.138;16.402;2024-03-06T12:01:51;12.90;94.70
12013;DHT22;6065;48.138;16.402;2024-03-06T12:04:19;12.90;94.60
12013;DHT22;6065;48.138;16.402;2024-03-06T12:06:45;13.00;94.40
12013;DHT22;6065;48.138;16.402;2024-03-06T12:09:13;12.90;94.10
12013;DHT22;6065;48.138;16.402;2024-03-06T12:11:40;12.90;94.00
12013;DHT22;6065;48.138;16.402;2024-03-06T12:14:12;13.00;94.20
12013;DHT22;6065;48.138;16.402;2024-03-06T12:16:39;13.00;94.50
12013;DHT22;6065;48.138;16.402;2024-03-06T12:19:07;13.10;94.70
12013;DHT22;6065;48.138;16.402;2024-03-06T12:21:35;13.20;94.40
12013;DHT22;6065;48.138;16.402;2024-03-06T12:24:03;13.10;94.20
12013;DHT22;6065;48.138;16.402;2024-03-06T12:26:30;13.10;94.20
12013;DHT22;6065;48.138;16.402;2024-03-06T12:29:04;13.10;94.20
12013;DHT22;6065;48.138;16.402;2024-03-06T12:31:31;13.00;94.30
12013;DHT22;6065;48.138;16.402;2024-03-06T12:33:59;13.10;94.60
12013;DHT22;6065;48.138;16.402;2024-03-06T12:36:29;13.00;94.60
12013;DHT22;6065;48.138;16.402;2024-03-06T12:38:58;13.00;94.60
12013;DHT22;6065;48.138;16.402;2024-03-06T12:41:25;13.00;94.50
12013;DHT22;6065;48.138;16.402;2024-03-06T12:43:53;12.90;94.70
12013;DHT22;6065;48.138;16.402;2024-03-06T12:46:20;12.90;95.00
12013;DHT22;6065;48.138;16.402;2024-03-06T12:48:47;12.90;95.30
12013;DHT22;6065;48.138;16.402;2024-03-06T12:51:14;12.90;95.00
12013;DHT22;6065;48.138;16.402;2024-03-06T12:53:42;12.80;94.90
12013;DHT22;6065;48.138;16.402;2024-03-06T12:56:09;12.80;94.80
12013;DHT22;6065;48.138;16.402;2024-03-06T12:58:36;12.70;94.50
12013;DHT22;6065;48.138;16.402;2024-03-06T13:01:03;12.70;94.70
12013;DHT22;6065;48.138;16.402;2024-03-06T13:03:30;12.60;94.80
12013;DHT22;6065;48.138;16.402;2024-03-06T13:05:57;12.60;95.00
12013;DHT22;6065;48.138;16.402;2024-03-06T13:08:24;12.60;95.10
12013;DHT22;6065;48.138;16.402;2024-03-06T13:10:52;12.60;95.50
12013;DHT22;6065;48.138;16.402;2024-03-06T13:13:19;12.50;95.30
12013;DHT22;6065;48.138;16.402;2024-03-06T13:15:46;12.40;95.30
12013;DHT22;6065;48.138;16.402;2024-03-06T13:18:13;12.30;95.30
12013;DHT22;6065;48.138;16.402;2024-03-06T13:20:41;12.30;95.40
12013;DHT22;6065;48.138;16.402;2024-03-06T13:23:08;12.20;95.50
12013;DHT22;6065;48.138;16.402;2024-03-06T13:25:34;12.20;95.60
12013;DHT22;6065;48.138;16.402;2024-03-06T13:28:03;12.20;95.60
12013;DHT22;6065;48.138;16.402;2024-03-06T13:30:30;12.10;95.60
12013;DHT22;6065;48.138;16.402;2024-03-06T13:32:57;12.20;95.70
12013;DHT22;6065;48.138;16.402;2024-03-06T13:35:24;12.20;95.60
12013;DHT22;6065;48.138;16.402;2024-03-06T13:37:55;12.10;95.50
12013;DHT22;6065;48.138;16.402;2024-03-06T13:40:21;12.10;95.50
12013;DHT22;6065;48.138;16.402;2024-03-06T13:42:48;12.10;95.50
12013;DHT22;6065;48.138;16.402;2024-03-06T13:45:17;12.00;95.40
12013;DHT22;6065;48.138;16.402;2024-03-06T13:47:44;12.00;95.30
12013;DHT22;6065;48.138;16.402;2024-03-06T13:50:11;11.90;95.30
12013;DHT22;6065;48.138;16.402;2024-03-06T13:52:38;11.90;95.30
12013;DHT22;6065;48.138;16.402;2024-03-06T13:55:05;11.80;95.10
12013;DHT22;6065;48.138;16.402;2024-03-06T13:57:33;11.80;95.20
12013;DHT22;6065;48.138;16.402;2024-03-06T14:00:00;11.80;95.40
12013;DHT22;6065;48.138;16.402;2024-03-06T14:02:29;11.70;95.60
12013;DHT22;6065;48.138;16.402;2024-03-06T14:04:56;11.80;95.70
12013;DHT22;6065;48.138;16.402;2024-03-06T14:07:22;11.70;96.30
12013;DHT22;6065;48.138;16.402;2024-03-06T14:09:49;11.70;96.00
12013;DHT22;6065;48.138;16.402;2024-03-06T14:12:16;11.70;96.10
12013;DHT22;6065;48.138;16.402;2024-03-06T14:14:43;11.60;96.10
12013;DHT22;6065;48.138;16.402;2024-03-06T14:17:11;11.60;96.00
12013;DHT22;6065;48.138;16.402;2024-03-06T14:19:39;11.50;95.90
12013;DHT22;6065;48.138;16.402;2024-03-06T14:22:07;11.50;96.00
12013;DHT22;6065;48.138;16.402;2024-03-06T14:24:33;11.40;96.00
12013;DHT22;6065;48.138;16.402;2024-03-06T14:27:01;11.30;96.00
12013;DHT22;6065;48.138;16.402;2024-03-06T14:29:28;11.30;96.00
12013;DHT22;6065;48.138;16.402;2024-03-06T14:31:54;11.30;95.90
12013;DHT22;6065;48.138;16.402;2024-03-06T14:34:21;11.30;95.90
12013;DHT22;6065;48.138;16.402;2024-03-06T14:36:51;11.20;96.00
12013;DHT22;6065;48.138;16.402;2024-03-06T14:39:17;11.20;95.90
12013;DHT22;6065;48.138;16.402;2024-03-06T14:41:49;11.10;95.80
12013;DHT22;6065;48.138;16.402;2024-03-06T14:44:16;11.10;96.00
12013;DHT22;6065;48.138;16.402;2024-03-06T14:46:43;11.10;95.80
12013;DHT22;6065;48.138;16.402;2024-03-06T14:49:10;11.10;95.80
12013;DHT22;6065;48.138;16.402;2024-03-06T14:51:36;11.10;95.80
12013;DHT22;6065;48.138;16.402;2024-03-06T14:54:05;11.10;95.70
12013;DHT22;6065;48.138;16.402;2024-03-06T14:56:31;11.10;95.70
12013;DHT22;6065;48.138;16.402;2024-03-06T14:58:58;11.00;95.60
12013;DHT22;6065;48.138;16.402;2024-03-06T15:01:25;11.00;95.70
12013;DHT22;6065;48.138;16.402;2024-03-06T15:03:53;11.00;95.70
12013;DHT22;6065;48.138;16.402;2024-03-06T15:06:20;11.00;95.60
12013;DHT22;6065;48.138;16.402;2024-03-06T15:08:48;11.00;95.70
12013;DHT22;6065;48.138;16.402;2024-03-06T15:11:16;11.00;95.70
12013;DHT22;6065;48.138;16.402;2024-03-06T15:13:42;11.00;95.70
12013;DHT22;6065;48.138;16.402;2024-03-06T15:16:10;11.00;95.70
12013;DHT22;6065;48.138;16.402;2024-03-06T15:18:38;11.00;95.60
12013;DHT22;6065;48.138;16.402;2024-03-06T15:21:06;11.00;95.60
12013;DHT22;6065;48.138;16.402;2024-03-06T15:23:33;10.90;95.60
12013;DHT22;6065;48.138;16.402;2024-03-06T15:25:59;10.90;95.70
12013;DHT22;6065;48.138;16.402;2024-03-06T15:28:27;10.90;95.70
12013;DHT22;6065;48.138;16.402;2024-03-06T15:30:55;10.90;95.70
12013;DHT22;6065;48.138;16.402;2024-03-06T15:33:22;10.90;95.60
12013;DHT22;6065;48.138;16.402;2024-03-06T15:35:49;10.90;95.60
12013;DHT22;6065;48.138;16.402;2024-03-06T15:38:16;10.80;95.50
12013;DHT22;6065;48.138;16.402;2024-03-06T15:40:43;10.80;95.50